Time;durP1;ratioP1;P1;durP2;ratioP2;P2;SDS_P1;SDS_P2;PMS_P1;PMS_P2;Temp;Humidity;BMP_temperature;BMP_pressure;BME280_temperature;BME280_humidity;BME280_pressure;Samples;Min_cycle;Max_cycle;Signal;HPM_P1;HPM_P2
2022/04/22 00:00:13;;;;;;;2.38;1.48;;;;;;;-143.60;100.00;57988.34;2074806;28;20168;-74
2022/04/22 00:01:36;;;;;;;3.92;1.85;;;;;;;-143.60;100.00;57988.34;2077377;28;20085;-74
2022/04/22 00:02:57;;;;;;;2.58;1.65;;;;;;;-143.60;100.00;57988.34;2068636;28;20038;-74
2022/04/22 00:04:19;;;;;;;5.80;2.15;;;;;;;-143.60;100.00;57988.34;2074727;28;20534;-77
2022/04/22 00:05:42;;;;;;;3.13;1.75;;;;;;;-143.60;100.00;57988.34;2071767;28;20224;-73
2022/04/22 00:07:04;;;;;;;1.67;1.20;;;;;;;-143.60;100.00;57988.34;2062641;28;20042;-73
2022/04/22 00:08:27;;;;;;;4.03;2.15;;;;;;;-143.60;100.00;57988.34;2066547;28;20057;-74
2022/04/22 00:09:49;;;;;;;5.15;2.50;;;;;;;-143.60;100.00;57988.34;2069093;28;20167;-74
2022/04/22 00:12:50;;;;;;;4.20;2.15;;;;;;;-143.60;100.00;57988.34;2079192;28;20049;-74
2022/04/22 00:14:14;;;;;;;4.10;1.48;;;;;;;-143.60;100.00;57988.34;2079953;28;20041;-73
2022/04/22 00:15:37;;;;;;;2.33;1.30;;;;;;;-143.60;100.00;57988.34;2077434;28;20061;-73
2022/04/22 00:16:58;;;;;;;6.93;2.28;;;;;;;-143.60;100.00;57988.34;2073055;28;20065;-74
2022/04/22 00:18:23;;;;;;;2.40;1.60;;;;;;;-143.60;100.00;57988.34;2073320;28;20431;-73
2022/04/22 00:19:44;;;;;;;1.92;1.40;;;;;;;-143.60;100.00;57988.34;2065124;28;20046;-74
2022/04/22 00:21:07;;;;;;;1.95;1.25;;;;;;;-143.60;100.00;57988.34;2067237;28;20057;-73
2022/04/22 00:22:28;;;;;;;3.13;1.67;;;;;;;-143.60;100.00;57988.34;2079925;28;20046;-73
2022/04/22 00:23:51;;;;;;;2.55;1.58;;;;;;;-143.60;100.00;57988.34;2071039;28;20053;-74
2022/04/22 00:25:15;;;;;;;1.55;1.00;;;;;;;-143.60;100.00;57988.34;2075276;28;20073;-74
2022/04/22 00:26:38;;;;;;;5.15;2.20;;;;;;;-143.60;100.00;57988.34;2067084;28;20050;-74
2022/04/22 00:28:01;;;;;;;2.38;1.83;;;;;;;-143.60;100.00;57988.34;2064158;28;20053;-74
2022/04/22 00:29:25;;;;;;;2.72;1.40;;;;;;;-143.60;100.00;57988.34;2069202;28;20465;-74
2022/04/22 00:30:48;;;;;;;0.90;0.73;;;;;;;-143.60;100.00;57988.34;2058480;28;20050;-74
2022/04/22 00:32:09;;;;;;;3.17;1.20;;;;;;;-143.60;100.00;57988.34;2070437;28;20515;-74
2022/04/22 00:33:32;;;;;;;3.65;1.70;;;;;;;-143.60;100.00;57988.34;2062361;28;20133;-75
2022/04/22 00:34:55;;;;;;;3.97;1.77;;;;;;;-143.60;100.00;57988.34;2070457;28;20076;-73
2022/04/22 00:36:17;;;;;;;3.58;1.75;;;;;;;-143.60;100.00;57988.34;2073960;28;20506;-74
2022/04/22 00:37:42;;;;;;;2.47;1.70;;;;;;;-143.60;100.00;57988.34;2061375;28;20145;-74
2022/04/22 00:39:05;;;;;;;3.70;1.38;;;;;;;-143.60;100.00;57988.34;2071050;28;20176;-74
2022/04/22 00:40:27;;;;;;;3.88;1.80;;;;;;;-143.60;100.00;57988.34;2074863;28;20072;-74
2022/04/22 00:41:48;;;;;;;2.35;1.60;;;;;;;-143.60;100.00;57988.34;2057617;28;20136;-73
2022/04/22 00:43:21;;;;;;;3.85;1.58;;;;;;;-143.60;100.00;57988.34;2075153;28;20056;-73
2022/04/22 00:44:45;;;;;;;;;;;;;;;-143.60;100.00;57988.34;2071175;28;20048;-74
2022/04/22 00:46:06;;;;;;;4.95;1.95;;;;;;;-143.60;100.00;57988.34;2071289;28;20032;-73
2022/04/22 00:47:28;;;;;;;6.05;2.72;;;;;;;-143.60;100.00;57988.34;2081180;28;20072;-73
2022/04/22 00:48:50;;;;;;;4.82;2.05;;;;;;;-143.60;100.00;57988.34;2081040;28;20049;-73
2022/04/22 00:50:13;;;;;;;4.03;1.38;;;;;;;-143.60;100.00;57988.34;2068218;28;20701;-73
2022/04/22 00:51:34;;;;;;;1.88;1.02;;;;;;;-143.60;100.00;57988.34;2081614;28;20039;-73
2022/04/22 00:52:57;;;;;;;1.63;0.88;;;;;;;-143.60;100.00;57988.34;2078494;28;20068;-74
2022/04/22 00:54:19;;;;;;;13.77;1.13;;;;;;;-143.60;100.00;57988.34;2078803;28;20045;-73
2022/04/22 00:55:43;;;;;;;3.33;1.35;;;;;;;-143.60;100.00;57988.34;2078058;28;20125;-74
2022/04/22 00:57:07;;;;;;;1.70;1.23;;;;;;;-143.60;100.00;57988.34;2074716;28;20053;-73
2022/04/22 00:58:29;;;;;;;3.58;1.42;;;;;;;-143.60;100.00;57988.34;2062178;28;20042;-73
2022/04/22 00:59:52;;;;;;;2.40;1.23;;;;;;;-143.60;100.00;57988.34;2067697;28;20041;-73
2022/04/22 01:01:15;;;;;;;3.45;1.92;;;;;;;-143.60;100.00;57988.34;2062267;28;20141;-74
2022/04/22 01:02:38;;;;;;;2.17;1.40;;;;;;;-143.60;100.00;57988.34;2078512;28;20081;-73
2022/04/22 01:10:35;;;;;;;1.75;1.33;;;;;;;-143.60;100.00;57988.34;2078823;28;20038;-74
2022/04/22 01:11:58;;;;;;;2.70;1.40;;;;;;;-143.60;100.00;57988.34;2071899;28;20061;-74
2022/04/22 01:13:21;;;;;;;2.65;1.27;;;;;;;-143.60;100.00;57988.34;2071481;28;20050;-74
2022/04/22 01:14:44;;;;;;;2.20;1.67;;;;;;;-143.60;100.00;57988.34;2086540;28;20171;-73
2022/04/22 01:16:08;;;;;;;3.60;1.88;;;;;;;-143.60;100.00;57988.34;2076727;28;20682;-73
2022/04/22 01:17:31;;;;;;;5.57;1.48;;;;;;;-143.60;100.00;57988.34;2075734;28;20501;-74
2022/04/22 01:18:53;;;;;;;4.20;1.52;;;;;;;-143.60;100.00;57988.34;2079456;28;20046;-74
2022/04/22 01:20:17;;;;;;;6.25;2.15;;;;;;;-143.60;100.00;57988.34;2066734;28;20050;-74
2022/04/22 01:21:39;;;;;;;2.83;1.48;;;;;;;-143.60;100.00;57988.34;2077760;28;20534;-74
2022/04/22 01:23:02;;;;;;;5.15;1.73;;;;;;;-143.60;100.00;57988.34;2072828;28;20601;-73
2022/04/22 01:24:23;;;;;;;3.17;1.73;;;;;;;-143.60;100.00;57988.34;2086536;28;20136;-73
2022/04/22 01:25:46;;;;;;;2.88;1.70;;;;;;;-143.60;100.00;57988.34;2067388;28;20193;-73
2022/04/22 01:27:11;;;;;;;5.38;1.48;;;;;;;-143.60;100.00;57988.34;2083112;28;20045;-73
2022/04/22 01:28:35;;;;;;;3.60;1.40;;;;;;;-143.60;100.00;57988.34;2069650;28;20045;-73
2022/04/22 01:29:58;;;;;;;2.35;1.45;;;;;;;-143.60;100.00;57988.34;2067531;28;20038;-73
2022/04/22 01:31:23;;;;;;;2.53;1.27;;;;;;;-143.60;100.00;57988.34;2075085;28;20058;-73
2022/04/22 01:32:46;;;;;;;3.33;1.27;;;;;;;-143.60;100.00;57988.34;2078633;28;20593;-73
2022/04/22 01:34:08;;;;;;;1.00;0.88;;;;;;;-143.60;100.00;57988.34;2070312;28;20057;-73
2022/04/22 01:35:30;;;;;;;4.20;2.72;;;;;;;-143.60;100.00;57988.34;2070960;28;20046;-73
2022/04/22 01:36:54;;;;;;;1.73;0.88;;;;;;;-143.60;100.00;57988.34;2075205;28;20530;-73
2022/04/22 01:38:17;;;;;;;2.10;0.85;;;;;;;-143.60;100.00;57988.34;2072908;28;20077;-74
2022/04/22 01:39:38;;;;;;;1.17;0.70;;;;;;;-143.60;100.00;57988.34;2075671;28;20052;-74
2022/04/22 01:41:01;;;;;;;0.60;0.47;;;;;;;-143.60;100.00;57988.34;2063028;28;20049;-74
2022/04/22 01:42:22;;;;;;;1.08;0.65;;;;;;;-143.60;100.00;57988.34;2084049;28;20057;-73
2022/04/22 01:43:45;;;;;;;4.38;0.60;;;;;;;-143.60;100.00;57988.34;2067022;28;20133;-73
2022/04/22 01:45:08;;;;;;;1.63;0.77;;;;;;;-143.60;100.00;57988.34;2056392;28;20047;-74
2022/04/22 01:46:30;;;;;;;1.05;0.82;;;;;;;-143.60;100.00;57988.34;2059490;28;20573;-73
2022/04/22 01:47:52;;;;;;;1.67;0.70;;;;;;;-143.60;100.00;57988.34;2061889;28;20460;-73
2022/04/22 01:49:13;;;;;;;5.10;1.65;;;;;;;-143.60;100.00;57988.34;2066408;28;20049;-74
2022/04/22 01:50:36;;;;;;;1.17;0.70;;;;;;;-143.60;100.00;57988.34;2083870;28;20456;-74
2022/04/22 01:52:00;;;;;;;2.10;0.90;;;;;;;-143.60;100.00;57988.34;2074387;28;20049;-74
2022/04/22 01:53:23;;;;;;;2.15;0.88;;;;;;;-143.60;100.00;57988.34;2069858;28;20053;-74
2022/04/22 01:54:45;;;;;;;2.33;1.33;;;;;;;-143.60;100.00;57988.34;2061826;28;20046;-74
2022/04/22 01:56:07;;;;;;;0.80;0.45;;;;;;;-143.60;100.00;57988.34;2067088;28;20112;-74
2022/04/22 01:57:29;;;;;;;2.63;0.77;;;;;;;-143.60;100.00;57988.34;2062594;28;20046;-74
2022/04/22 01:58:52;;;;;;;1.40;0.60;;;;;;;-143.60;100.00;57988.34;2070079;28;20153;-74
2022/04/22 02:00:15;;;;;;;2.40;0.60;;;;;;;-143.60;100.00;57988.34;2075315;28;20046;-74
2022/04/22 02:01:36;;;;;;;1.58;0.50;;;;;;;-143.60;100.00;57988.34;2068841;28;20076;-74
2022/04/22 02:02:59;;;;;;;1.58;0.65;;;;;;;-143.60;100.00;57988.34;2081646;28;20062;-74
2022/04/22 02:04:22;;;;;;;0.45;0.40;;;;;;;-143.60;100.00;57988.34;2066900;28;20074;-74
2022/04/22 02:05:44;;;;;;;6.57;0.80;;;;;;;-143.60;100.00;57988.34;2083202;28;20052;-73
2022/04/22 02:07:09;;;;;;;1.63;0.70;;;;;;;-143.60;100.00;57988.34;2074244;28;21813;-74
2022/04/22 02:08:31;;;;;;;1.92;0.50;;;;;;;-143.60;100.00;57988.34;2069982;28;20103;-74
2022/04/22 02:09:54;;;;;;;4.78;1.25;;;;;;;-143.60;100.00;57988.34;2072331;28;20045;-74
2022/04/22 02:11:16;;;;;;;2.42;0.90;;;;;;;-143.60;100.00;57988.34;2064992;28;20056;-74
2022/04/22 02:12:38;;;;;;;0.50;0.40;;;;;;;-143.60;100.00;57988.34;2067061;28;20095;-74
2022/04/22 02:13:59;;;;;;;2.05;0.85;;;;;;;-143.60;100.00;57988.34;2072013;28;20041;-73
2022/04/22 02:15:22;;;;;;;0.60;0.35;;;;;;;-143.60;100.00;57988.34;2074825;28;20462;-74
2022/04/22 02:16:45;;;;;;;2.63;0.90;;;;;;;-143.60;100.00;57988.34;2067331;28;20519;-73
2022/04/22 02:18:06;;;;;;;0.60;0.60;;;;;;;-143.60;100.00;57988.34;2070425;28;20092;-73
2022/04/22 02:19:29;;;;;;;1.08;0.50;;;;;;;-143.60;100.00;57988.34;2062011;28;20054;-74
2022/04/22 02:20:53;;;;;;;0.82;0.50;;;;;;;-143.60;100.00;57988.34;2077914;28;20047;-74
2022/04/22 02:22:17;;;;;;;0.98;0.70;;;;;;;-143.60;100.00;57988.34;2072051;28;20077;-74
2022/04/22 02:23:40;;;;;;;0.98;0.70;;;;;;;-143.60;100.00;57988.34;2060831;28;20141;-74
2022/04/22 02:25:03;;;;;;;1.45;0.80;;;;;;;-143.60;100.00;57988.34;2058939;28;20438;-74
2022/04/22 02:26:26;;;;;;;5.75;1.08;;;;;;;-143.60;100.00;57988.34;2081909;28;20060;-73
2022/04/22 02:29:27;;;;;;;0.40;0.28;;;;;;;-143.60;100.00;57988.34;2066970;28;20559;-74
2022/04/22 02:30:49;;;;;;;2.70;0.80;;;;;;;-143.60;100.00;57988.34;2058732;28;20042;-74
2022/04/22 02:32:12;;;;;;;0.95;0.52;;;;;;;-143.60;100.00;57988.34;2083622;28;20041;-74
2022/04/22 02:33:36;;;;;;;0.95;0.70;;;;;;;-143.60;100.00;57988.34;2073439;28;20090;-73
2022/04/22 02:34:57;;;;;;;0.47;0.40;;;;;;;-143.60;100.00;57988.34;2053217;28;20054;-74
2022/04/22 02:36:20;;;;;;;1.80;0.60;;;;;;;-143.60;100.00;57988.34;2068387;28;20041;-74
2022/04/22 02:37:43;;;;;;;5.57;0.70;;;;;;;-143.60;100.00;57988.34;2075472;28;20104;-74
2022/04/22 02:39:05;;;;;;;2.72;0.88;;;;;;;-143.60;100.00;57988.34;2064303;28;20042;-74
2022/04/22 02:45:30;;;;;;;2.40;0.60;;;;;;;-143.60;100.00;57988.34;2063855;28;20050;-74
2022/04/22 02:46:52;;;;;;;2.42;0.47;;;;;;;-143.60;100.00;57988.34;2070213;28;20132;-73
2022/04/22 02:48:14;;;;;;;1.25;0.60;;;;;;;-143.60;100.00;57988.34;2066884;28;20045;-74
2022/04/22 02:49:36;;;;;;;1.65;0.80;;;;;;;-143.60;100.00;57988.34;2063412;28;20482;-74
2022/04/22 02:50:58;;;;;;;2.75;1.58;;;;;;;-143.60;100.00;57988.34;2077767;28;20624;-74
2022/04/22 02:52:21;;;;;;;2.28;0.82;;;;;;;-143.60;100.00;57988.34;2075524;28;20104;-74
2022/04/22 02:53:44;;;;;;;0.75;0.57;;;;;;;-143.60;100.00;57988.34;2077761;28;20051;-75
2022/04/22 02:55:07;;;;;;;1.27;0.85;;;;;;;-143.60;100.00;57988.34;2077765;28;20042;-74
2022/04/22 02:56:32;;;;;;;1.45;1.00;;;;;;;-143.60;100.00;57988.34;2077545;28;20076;-73
2022/04/22 02:57:53;;;;;;;1.45;0.75;;;;;;;-143.60;100.00;57988.34;2067738;28;20061;-74
2022/04/22 02:59:16;;;;;;;3.72;0.80;;;;;;;-143.60;100.00;57988.34;2068935;28;20549;-74
2022/04/22 03:00:37;;;;;;;1.98;1.00;;;;;;;-143.60;100.00;57988.34;2075937;28;20119;-73
2022/04/22 03:02:00;;;;;;;0.77;0.77;;;;;;;-143.60;100.00;57988.34;2072224;28;20045;-74
2022/04/22 03:03:22;;;;;;;0.98;0.80;;;;;;;-143.60;100.00;57988.34;2063758;28;20042;-74
2022/04/22 03:04:45;;;;;;;2.22;0.95;;;;;;;-143.60;100.00;57988.34;2068963;28;20077;-74
2022/04/22 03:06:07;;;;;;;2.35;1.40;;;;;;;-143.60;100.00;57988.34;2047675;28;20082;-74
2022/04/22 03:07:30;;;;;;;1.52;0.82;;;;;;;-143.60;100.00;57988.34;2072615;28;20561;-74
2022/04/22 03:08:54;;;;;;;1.27;0.73;;;;;;;-143.60;100.00;57988.34;2066367;28;20101;-74
2022/04/22 03:10:15;;;;;;;2.83;1.00;;;;;;;-143.60;100.00;57988.34;2074465;28;20075;-74
2022/04/22 03:11:38;;;;;;;2.20;1.02;;;;;;;-143.60;100.00;57988.34;2071157;28;20049;-74
2022/04/22 03:13:00;;;;;;;0.80;0.65;;;;;;;-143.60;100.00;57988.34;2060433;28;20172;-74
2022/04/22 03:14:23;;;;;;;2.05;1.25;;;;;;;-143.60;100.00;57988.34;2075198;28;20060;-74
2022/04/22 03:15:45;;;;;;;2.83;1.27;;;;;;;-143.60;100.00;57988.34;2069203;28;20049;-74
2022/04/22 03:17:07;;;;;;;;;;;;;;;-143.60;100.00;57988.34;2071033;28;20545;-73
2022/04/22 03:18:30;;;;;;;1.10;0.77;;;;;;;-143.60;100.00;57988.34;2061298;28;19921;-74
2022/04/22 03:19:51;;;;;;;2.05;0.88;;;;;;;-143.60;100.00;57988.34;2081463;28;20406;-74
2022/04/22 03:21:14;;;;;;;2.95;1.38;;;;;;;-143.60;100.00;57988.34;2066333;28;20049;-73
2022/04/22 03:22:36;;;;;;;2.33;1.38;;;;;;;-143.60;100.00;57988.34;2069068;28;20112;-74
2022/04/22 03:24:00;;;;;;;2.85;1.08;;;;;;;-143.60;100.00;57988.34;2073958;28;20045;-74
2022/04/22 03:25:23;;;;;;;1.90;1.30;;;;;;;-143.60;100.00;57988.34;2075070;28;20049;-74
2022/04/22 03:26:46;;;;;;;1.40;0.88;;;;;;;-143.60;100.00;57988.34;2069128;28;20066;-75
2022/04/22 03:28:09;;;;;;;2.25;1.08;;;;;;;-143.60;100.00;57988.34;2066339;28;20475;-74
2022/04/22 03:29:30;;;;;;;2.08;0.98;;;;;;;-143.60;100.00;57988.34;2068459;28;20045;-75
2022/04/22 03:30:52;;;;;;;1.25;0.88;;;;;;;-143.60;100.00;57988.34;2063916;28;20081;-74
2022/04/22 03:32:15;;;;;;;2.22;1.35;;;;;;;-143.60;100.00;57988.34;2085431;28;20052;-74
2022/04/22 03:33:37;;;;;;;5.15;2.33;;;;;;;-143.60;100.00;57988.34;2067757;28;20058;-74
2022/04/22 03:34:59;;;;;;;1.75;1.00;;;;;;;-143.60;100.00;57988.34;2072048;28;20449;-74
2022/04/22 03:36:21;;;;;;;1.83;1.00;;;;;;;-143.60;100.00;57988.34;2073437;28;20041;-74
2022/04/22 03:37:42;;;;;;;3.85;1.65;;;;;;;-143.60;100.00;57988.34;2072155;28;20659;-74
2022/04/22 03:39:07;;;;;;;3.05;1.60;;;;;;;-143.60;100.00;57988.34;2068368;28;20046;-74
2022/04/22 03:40:30;;;;;;;2.95;1.15;;;;;;;-143.60;100.00;57988.34;2068519;28;20561;-74
2022/04/22 03:41:51;;;;;;;4.72;1.63;;;;;;;-143.60;100.00;57988.34;2065771;28;20054;-74
2022/04/22 03:43:14;;;;;;;2.08;1.38;;;;;;;-143.60;100.00;57988.34;2056207;28;20042;-74
2022/04/22 03:44:36;;;;;;;3.25;1.40;;;;;;;-143.60;100.00;57988.34;2070096;28;20503;-74
2022/04/22 03:45:59;;;;;;;2.55;1.10;;;;;;;-143.60;100.00;57988.34;2064695;28;20061;-74
2022/04/22 03:47:21;;;;;;;2.60;1.17;;;;;;;-143.60;100.00;57988.34;2082525;28;20163;-74
2022/04/22 03:48:43;;;;;;;2.47;1.45;;;;;;;-143.60;100.00;57988.34;2071946;28;20048;-74
2022/04/22 03:50:05;;;;;;;1.42;0.88;;;;;;;-143.60;100.00;57988.34;2072747;28;20457;-74
2022/04/22 03:51:28;;;;;;;1.10;0.85;;;;;;;-143.60;100.00;57988.34;2077357;28;20037;-74
2022/04/22 03:52:50;;;;;;;2.15;1.13;;;;;;;-143.60;100.00;57988.34;2074484;28;20772;-75
2022/04/22 03:54:16;;;;;;;1.75;0.82;;;;;;;-143.60;100.00;57988.34;2084951;28;20041;-74
2022/04/22 03:55:39;;;;;;;1.30;0.90;;;;;;;-143.60;100.00;57988.34;2072945;28;20422;-75
2022/04/22 03:58:40;;;;;;;1.58;0.98;;;;;;;-143.60;100.00;57988.34;2063727;28;20057;-74
2022/04/22 04:00:02;;;;;;;2.63;0.80;;;;;;;-143.60;100.00;57988.34;2067993;28;20427;-75
2022/04/22 04:01:26;;;;;;;3.42;0.80;;;;;;;-143.60;100.00;57988.34;2061306;28;20051;-75
2022/04/22 04:02:48;;;;;;;1.38;0.88;;;;;;;-143.60;100.00;57988.34;2077414;28;20049;-75
2022/04/22 04:04:10;;;;;;;1.27;0.55;;;;;;;-143.60;100.00;57988.34;2066781;28;20051;-75
2022/04/22 04:05:33;;;;;;;0.88;0.70;;;;;;;-143.60;100.00;57988.34;2074874;28;20099;-75
2022/04/22 04:06:55;;;;;;;1.90;1.00;;;;;;;-143.60;100.00;57988.34;2071259;28;20069;-74
2022/04/22 04:08:20;;;;;;;1.13;0.73;;;;;;;-143.60;100.00;57988.34;2065625;28;20057;-74
2022/04/22 04:16:31;;;;;;;2.42;1.90;;;;;;;-143.60;100.00;57988.34;2083145;28;20524;-75
2022/04/22 04:17:52;;;;;;;1.85;0.68;;;;;;;-143.60;100.00;57988.34;2073773;28;20496;-74
2022/04/22 04:24:14;;;;;;;1.20;0.57;;;;;;;-143.60;100.00;57988.34;2081205;28;20080;-75
2022/04/22 04:25:38;;;;;;;2.17;0.57;;;;;;;-143.60;100.00;57988.34;2067730;28;20062;-74
2022/04/22 04:27:01;;;;;;;0.60;0.35;;;;;;;-143.60;100.00;57988.34;2055238;28;20043;-75
2022/04/22 04:28:27;;;;;;;0.40;0.30;;;;;;;-143.60;100.00;57988.34;2084366;28;20734;-74
2022/04/22 04:29:48;;;;;;;0.57;0.38;;;;;;;-143.60;100.00;57988.34;2066460;28;20054;-75
2022/04/22 04:31:12;;;;;;;1.02;0.70;;;;;;;-143.60;100.00;57988.34;2076270;28;20502;-74
2022/04/22 04:32:34;;;;;;;0.80;0.45;;;;;;;-143.60;100.00;57988.34;2063280;28;20053;-75
2022/04/22 04:33:56;;;;;;;0.57;0.40;;;;;;;-143.60;100.00;57988.34;2070492;28;20753;-74
2022/04/22 04:35:17;;;;;;;0.75;0.50;;;;;;;-143.60;100.00;57988.34;2078722;28;20033;-74
2022/04/22 04:36:40;;;;;;;2.05;0.60;;;;;;;-143.60;100.00;57988.34;2073847;28;20053;-74
2022/04/22 04:38:02;;;;;;;1.60;0.73;;;;;;;-143.60;100.00;57988.34;2075054;28;20046;-74
2022/04/22 04:39:25;;;;;;;2.13;0.57;;;;;;;-143.60;100.00;57988.34;2064961;28;20054;-74
2022/04/22 04:40:48;;;;;;;1.50;0.75;;;;;;;-143.60;100.00;57988.34;2072328;28;20132;-74
2022/04/22 04:42:11;;;;;;;0.68;0.45;;;;;;;-143.60;100.00;57988.34;2067122;28;20499;-74
2022/04/22 04:43:34;;;;;;;1.33;0.50;;;;;;;-143.60;100.00;57988.34;2075144;28;20045;-75
2022/04/22 04:44:55;;;;;;;0.93;0.50;;;;;;;-143.60;100.00;57988.34;2062321;28;20381;-74
2022/04/22 04:46:17;;;;;;;0.75;0.35;;;;;;;-143.60;100.00;57988.34;2059990;28;20050;-74
2022/04/22 04:47:40;;;;;;;3.03;0.70;;;;;;;-143.60;100.00;57988.34;2067144;28;20105;-74
2022/04/22 04:49:03;;;;;;;1.63;0.60;;;;;;;-143.60;100.00;57988.34;2069817;28;20049;-74
2022/04/22 04:50:24;;;;;;;0.43;0.38;;;;;;;-143.60;100.00;57988.34;2076497;28;20488;-74
2022/04/22 04:51:47;;;;;;;0.40;0.40;;;;;;;-143.60;100.00;57988.34;2076415;28;20506;-74
2022/04/22 04:53:09;;;;;;;0.77;0.50;;;;;;;-143.60;100.00;57988.34;2068658;28;20057;-74
2022/04/22 04:54:32;;;;;;;1.83;0.80;;;;;;;-143.60;100.00;57988.34;2078746;28;20053;-74
2022/04/22 04:55:56;;;;;;;1.85;0.40;;;;;;;-143.60;100.00;57988.34;2078455;28;20476;-74
2022/04/22 04:57:19;;;;;;;1.38;0.60;;;;;;;-143.60;100.00;57988.34;2061587;28;20046;-74
2022/04/22 04:58:41;;;;;;;1.50;0.40;;;;;;;-143.60;100.00;57988.34;2082004;28;20048;-74
2022/04/22 05:00:05;;;;;;;1.25;0.60;;;;;;;-143.60;100.00;57988.34;2075661;28;20041;-74
2022/04/22 05:01:28;;;;;;;0.63;0.30;;;;;;;-143.60;100.00;57988.34;2080809;28;20069;-74
2022/04/22 05:02:49;;;;;;;0.82;0.55;;;;;;;-143.60;100.00;57988.34;2074534;28;20049;-74
2022/04/22 05:04:12;;;;;;;1.83;0.85;;;;;;;-143.60;100.00;57988.34;2069459;28;20042;-74
2022/04/22 05:05:34;;;;;;;1.35;0.45;;;;;;;-143.60;100.00;57988.34;2064343;28;20103;-74
2022/04/22 05:06:56;;;;;;;1.73;0.47;;;;;;;-143.60;100.00;57988.34;2067890;28;20065;-75
2022/04/22 05:08:19;;;;;;;0.70;0.57;;;;;;;-143.60;100.00;57988.34;2076838;28;20474;-75
2022/04/22 05:09:40;;;;;;;1.23;0.55;;;;;;;-143.60;100.00;57988.34;2078615;28;20065;-74
2022/04/22 05:11:04;;;;;;;2.75;0.65;;;;;;;-143.60;100.00;57988.34;2077035;28;20095;-74
2022/04/22 05:12:26;;;;;;;2.80;0.63;;;;;;;-143.60;100.00;57988.34;2078330;28;20128;-75
2022/04/22 05:13:48;;;;;;;2.58;1.05;;;;;;;-143.60;100.00;57988.34;2075227;28;20054;-74
2022/04/22 05:15:12;;;;;;;1.10;0.80;;;;;;;-143.60;100.00;57988.34;2072907;28;20259;-74
2022/04/22 05:16:35;;;;;;;2.83;0.60;;;;;;;-143.60;100.00;57988.34;2062403;28;20034;-75
2022/04/22 05:17:59;;;;;;;3.08;0.70;;;;;;;-143.60;100.00;57988.34;2084305;28;20146;-74
2022/04/22 05:19:21;;;;;;;3.15;0.77;;;;;;;-143.60;100.00;57988.34;2077958;28;20046;-75
2022/04/22 05:20:44;;;;;;;1.80;0.60;;;;;;;-143.60;100.00;57988.34;2078167;28;20168;-75
2022/04/22 05:22:06;;;;;;;1.92;0.70;;;;;;;-143.60;100.00;57988.34;2078543;28;20048;-75
2022/04/22 05:23:29;;;;;;;1.45;0.68;;;;;;;-143.60;100.00;57988.34;2070430;28;20050;-75
2022/04/22 05:24:51;;;;;;;0.70;0.55;;;;;;;-143.60;100.00;57988.34;2070159;28;20148;-74
2022/04/22 05:26:15;;;;;;;1.13;0.55;;;;;;;-143.60;100.00;57988.34;2063841;28;20046;-74
2022/04/22 05:27:37;;;;;;;2.05;0.50;;;;;;;-143.60;100.00;57988.34;2068468;28;20042;-74
2022/04/22 05:28:59;;;;;;;1.00;0.40;;;;;;;-143.60;100.00;57988.34;2078335;28;20060;-74
2022/04/22 05:33:43;;;;;;;1.13;0.40;;;;;;;-143.60;100.00;57988.34;2085198;28;20605;-75
2022/04/22 05:35:07;;;;;;;1.48;0.40;;;;;;;-143.60;100.00;57988.34;2076562;28;20061;-75
2022/04/22 05:36:30;;;;;;;1.30;0.68;;;;;;;-143.60;100.00;57988.34;2074702;28;20045;-75
2022/04/22 05:37:54;;;;;;;1.20;0.60;;;;;;;-143.60;100.00;57988.34;2066965;28;20052;-75
2022/04/22 05:39:16;;;;;;;1.02;0.52;;;;;;;-143.60;100.00;57988.34;2068712;28;20107;-75
2022/04/22 05:40:39;;;;;;;1.88;0.55;;;;;;;-143.60;100.00;57988.34;2061802;28;20054;-75
2022/04/22 05:42:04;;;;;;;3.92;1.55;;;;;;;-143.60;100.00;57988.34;2083075;28;20037;-75
2022/04/22 05:43:28;;;;;;;1.60;1.00;;;;;;;-143.60;100.00;57988.34;2075530;28;20058;-75
2022/04/22 05:44:49;;;;;;;1.52;0.82;;;;;;;-143.60;100.00;57988.34;2085007;28;20403;-75
2022/04/22 05:46:12;;;;;;;1.95;0.90;;;;;;;-143.60;100.00;57988.34;2067076;28;20050;-75
2022/04/22 05:47:33;;;;;;;1.40;1.02;;;;;;;-143.60;100.00;57988.34;2068978;28;20099;-75
2022/04/22 05:48:55;;;;;;;1.80;0.88;;;;;;;-143.60;100.00;57988.34;2073356;28;20515;-75
2022/04/22 05:50:19;;;;;;;3.70;0.90;;;;;;;-143.60;100.00;57988.34;2075478;28;20053;-75
2022/04/22 05:51:42;;;;;;;2.75;1.42;;;;;;;-143.60;100.00;57988.34;2078247;28;20164;-75
2022/04/22 05:53:04;;;;;;;2.05;0.90;;;;;;;-143.60;100.00;57988.34;2075339;28;20054;-74
2022/04/22 05:54:25;;;;;;;3.40;0.88;;;;;;;-143.60;100.00;57988.34;2077875;28;20087;-76
2022/04/22 05:55:48;;;;;;;2.20;0.80;;;;;;;-143.60;100.00;57988.34;2074924;28;20042;-76
2022/04/22 05:57:12;;;;;;;7.72;1.10;;;;;;;-143.60;100.00;57988.34;2078279;28;20317;-75
2022/04/22 05:58:34;;;;;;;2.88;0.90;;;;;;;-143.60;100.00;57988.34;2085149;28;20494;-75
2022/04/22 05:59:56;;;;;;;2.85;0.80;;;;;;;-143.60;100.00;57988.34;2074774;28;20520;-75
2022/04/22 06:01:18;;;;;;;4.05;0.88;;;;;;;-143.60;100.00;57988.34;2060568;28;20050;-75
2022/04/22 06:02:42;;;;;;;1.23;0.85;;;;;;;-143.60;100.00;57988.34;2067235;28;20131;-75
2022/04/22 06:04:05;;;;;;;1.48;0.80;;;;;;;-143.60;100.00;57988.34;2076314;28;20094;-75
2022/04/22 06:05:28;;;;;;;1.33;0.50;;;;;;;-143.60;100.00;57988.34;2066998;28;20117;-75
2022/04/22 06:06:51;;;;;;;3.25;1.23;;;;;;;-143.60;100.00;57988.34;2074210;28;20065;-75
2022/04/22 06:11:28;;;;;;;3.05;0.60;;;;;;;-143.60;100.00;57988.34;2060265;28;20054;-75
2022/04/22 06:12:52;;;;;;;0.98;0.70;;;;;;;-143.60;100.00;57988.34;2066512;28;20045;-76
2022/04/22 06:14:15;;;;;;;0.70;0.50;;;;;;;-143.60;100.00;57988.34;2069065;28;20050;-76
2022/04/22 06:15:37;;;;;;;2.55;1.00;;;;;;;-143.60;100.00;57988.34;2073960;28;20046;-76
2022/04/22 06:17:00;;;;;;;1.60;0.80;;;;;;;-143.60;100.00;57988.34;2085985;28;20743;-76
2022/04/22 06:18:23;;;;;;;3.53;0.60;;;;;;;-143.60;100.00;57988.34;2066557;28;20043;-76
2022/04/22 06:19:45;;;;;;;1.30;0.73;;;;;;;-143.60;100.00;57988.34;2069716;28;20077;-76
2022/04/22 06:21:08;;;;;;;4.60;0.65;;;;;;;-143.60;100.00;57988.34;2086138;28;20048;-76
2022/04/22 06:22:31;;;;;;;2.67;0.80;;;;;;;-143.60;100.00;57988.34;2065760;28;20045;-75
2022/04/22 06:23:53;;;;;;;1.00;0.57;;;;;;;-143.60;100.00;57988.34;2082812;28;20033;-75
2022/04/22 06:25:17;;;;;;;2.22;0.85;;;;;;;-143.60;100.00;57988.34;2066621;28;20058;-75
2022/04/22 06:26:39;;;;;;;1.42;0.90;;;;;;;-143.60;100.00;57988.34;2082788;28;20032;-76
2022/04/22 06:28:05;;;;;;;1.52;0.63;;;;;;;-143.60;100.00;57988.34;2074896;28;20144;-76
2022/04/22 06:29:27;;;;;;;0.88;0.60;;;;;;;-143.60;100.00;57988.34;2069963;28;20037;-76
2022/04/22 06:30:50;;;;;;;;;;;;;;;-143.60;100.00;57988.34;2061918;28;20054;-77
2022/04/22 06:32:12;;;;;;;0.50;0.50;;;;;;;-143.60;100.00;57988.34;2072508;28;20406;-76
2022/04/22 06:33:36;;;;;;;1.63;0.60;;;;;;;-143.60;100.00;57988.34;2071516;28;20073;-76
2022/04/22 06:34:58;;;;;;;0.93;0.60;;;;;;;-143.60;100.00;57988.34;2067170;28;20046;-77
2022/04/22 06:36:22;;;;;;;2.20;0.60;;;;;;;-143.60;100.00;57988.34;2077558;28;20088;-77
2022/04/22 06:37:46;;;;;;;1.02;0.45;;;;;;;-143.60;100.00;57988.34;2071575;28;20518;-77
2022/04/22 06:39:10;;;;;;;2.38;0.68;;;;;;;-143.60;100.00;57988.34;2085728;28;20094;-77
2022/04/22 06:45:48;;;;;;;3.17;0.63;;;;;;;-143.60;100.00;57988.34;2064064;28;20547;-77
2022/04/22 06:47:11;;;;;;;0.63;0.40;;;;;;;-143.60;100.00;57988.34;2072840;28;20325;-78
2022/04/22 06:48:34;;;;;;;2.03;0.63;;;;;;;-143.60;100.00;57988.34;2076926;28;20529;-77
2022/04/22 06:49:57;;;;;;;1.08;0.57;;;;;;;-143.60;100.00;57988.34;2076948;28;20057;-77
2022/04/22 06:51:23;;;;;;;1.13;0.40;;;;;;;-143.60;100.00;57988.34;2077872;28;20049;-77
2022/04/22 06:52:44;;;;;;;0.82;0.47;;;;;;;-143.60;100.00;57988.34;2080201;28;20144;-77
2022/04/22 06:54:07;;;;;;;2.40;0.68;;;;;;;-143.60;100.00;57988.34;2076932;28;20148;-77
2022/04/22 06:55:29;;;;;;;0.70;0.32;;;;;;;-143.60;100.00;57988.34;2061258;28;20096;-76